METAR Data
IDs: Format: Raw Decoded Include TAF

Data at: 0858 UTC 26 Jan 2020

Region: TOP
KATL 260852Z 32007KT 10SM FEW180 SCT220 SCT250 02/M02 A3007 RMK AO2 SLP190 T00171017 58009

KBOS 260854Z 24010KT 10SM OVC019 09/06 A2967 RMK AO2 SLP047 T00890056 53003

KBWI 260854Z 25007KT 10SM OVC085 04/M02 A2989 RMK AO2 SLP120 T00391017 50000

KCLE 260851Z 24013G22KT 10SM OVC011 01/M01 A2987 RMK AO2 SLP121 60000 T00111011 53004

KCLT 260852Z 00000KT 10SM BKN250 00/M02 A3001 RMK AO2 SLP164 T00001017 58000

KCVG 260852Z 24006KT 8SM OVC013 00/M03 A2999 RMK AO2 SLP162 T00001028 50002

KDCA 260852Z 15003KT 10SM FEW055 SCT130 04/M01 A2991 RMK AO2 SLP128 T00391006 50003

KDEN 260853Z 18010KT 10SM BKN120 01/M07 A3005 RMK AO2 SLP156 T00111067 51003

KDFW 260853Z 18012KT 10SM FEW010 BKN025 BKN032 13/12 A2993 RMK AO2 SLP131 T01330122 58009

KDTW 260853Z 24009KT 4SM -SN BR OVC006 01/01 A2982 RMK AO2 SLP104 P0000 60001 T00110006 53005 $

KEWR 260851Z 23007KT 10SM FEW020 02/01 A2980 RMK AO2 SLP091 T00220011 51003

KFLL 260853Z 32006KT 10SM CLR 13/09 A3006 RMK AO2 SLP179 T01280094 58003

KIAD 260852Z 27003KT 10SM BKN085 02/M01 A2990 RMK AO2 SLP125 T00221011 50000

KIAH 260853Z 08004KT 3SM +RA BR BKN004 OVC014 14/14 A2998 RMK AO2 SLP151 P0006 60006 T01440139 56019

KJFK 260851Z 25008KT 10SM FEW018 FEW030 03/03 A2981 RMK AO2 SLP094 T00330028 51005 $

KLAS 260756Z 22003KT 10SM BKN250 10/M01 A3013 RMK AO2 SLP197 T01001011 401890067

KLAX 260853Z 15003KT 2 1/2SM BR BKN004 OVC009 14/12 A3013 RMK AO2 SLP200 VIS SW-W 1 3/4 T01440122 50001

KLGA 260851Z 25010KT 10SM FEW015 05/01 A2979 RMK AO2 SLP086 T00500011 51005

KMCO 260853Z 32006KT 10SM SCT250 10/06 A3012 RMK AO2 SLP198 T01000056 55004

KMDW 260853Z 26011KT 8SM BKN010 OVC019 01/M01 A2991 RMK AO2 SLP139 T00061011 50001

KMEM 260854Z 20005KT 10SM -RA OVC060 06/04 A3008 RMK AO2 RAB07 SLP187 P0001 60001 T00610039 58011

KMIA 260853Z 34006KT 10SM CLR 14/08 A3007 RMK AO2 SLP183 T01440083 58002

KMSP 260853Z 30005KT 10SM OVC010 M03/M06 A2995 RMK AO2 SLP153 T10331061 57004

KORD 260851Z 26007KT 10SM BKN011 OVC022 00/M01 A2990 RMK AO2 SLP130 T00001011 51000

KPDX 260853Z 11017KT 10SM -RA BKN033 OVC044 10/08 A2979 RMK AO2 SLP088 P0005 60013 T01000083 56018

KPHL 260854Z 25006KT 10SM CLR 02/M01 A2985 RMK AO2 SLP108 T00171011 50001 $

KPHX 260851Z 10005KT 10SM FEW250 12/05 A3009 RMK AO2 SLP179 T01170050 51005 $

KPIT 260851Z 25007KT 8SM -SN BKN007 BKN012 OVC028 00/M02 A2986 RMK AO2 SLP126 P0001 60002 T00001017 53000 $

KSAN 260851Z 00000KT 5SM BR OVC008 15/13 A3014 RMK AO2 SLP206 T01500128 50002

KSEA 260853Z 11008KT 7SM -RA BKN050 OVC065 09/06 A2978 RMK AO2 RAB19 SLP092 P0001 60001 T00890056 58015

KSFO 260822Z 16007KT 10SM SCT015 BKN080 14/12 A3012 RMK AO2 T01440122

KSLC 260854Z 19003KT 1SM R16L/P6000FT BR BKN005 02/02 A3019 RMK AO2 SFC VIS 4 SLP218 T00220022 58006

KSTL 260851Z 00000KT 10SM OVC085 M02/M04 A3006 RMK AO2 SLP190 T10171039 58001

KTPA 260853Z 03003KT 10SM CLR 11/07 A3011 RMK AO2 SLP196 T01060067 58010 $